Time;durP1;ratioP1;P1;durP2;ratioP2;P2;SDS_P1;SDS_P2;PMS_P1;PMS_P2;Temp;Humidity;BMP_temperature;BMP_pressure;BME280_temperature;BME280_humidity;BME280_pressure;Samples;Min_cycle;Max_cycle;Signal;HPM_P1;HPM_P2
2022/12/28 00:01:30;;;;;;;1999.90;999.90;;;2.20;99.90;;;;;;6352009;22;20006;-78
2022/12/28 00:04:02;;;;;;;1999.90;999.90;;;2.30;99.90;;;;;;6351444;22;20003;-78
2022/12/28 00:06:28;;;;;;;1999.90;999.90;;;2.30;99.90;;;;;;6351569;22;20010;-78
2022/12/28 00:08:55;;;;;;;1999.90;999.90;;;2.30;99.90;;;;;;6380845;22;20005;-77
2022/12/28 00:11:23;;;;;;;1999.90;999.90;;;2.40;99.90;;;;;;6379723;22;20034;-78
2022/12/28 00:13:49;;;;;;;1999.90;999.90;;;2.40;99.90;;;;;;6351979;22;20098;-78
2022/12/28 00:16:20;;;;;;;1999.90;999.90;;;2.50;99.90;;;;;;6380453;22;20042;-78
2022/12/28 00:18:46;;;;;;;1999.90;999.90;;;2.50;99.90;;;;;;6379988;22;20009;-78
2022/12/28 00:21:12;;;;;;;1999.90;999.90;;;2.50;99.90;;;;;;6352694;22;20011;-78
2022/12/28 00:23:38;;;;;;;1999.90;999.90;;;2.50;99.90;;;;;;6352745;22;20007;-78
2022/12/28 00:26:08;;;;;;;1999.90;999.90;;;2.50;99.90;;;;;;6352557;22;20290;-78
2022/12/28 00:28:34;;;;;;;1999.90;999.90;;;2.50;99.90;;;;;;6380161;22;20014;-78
2022/12/28 00:30:59;;;;;;;1999.90;999.90;;;2.60;99.90;;;;;;6379995;22;20453;-78
2022/12/28 00:33:25;;;;;;;1999.90;999.90;;;2.80;99.90;;;;;;6381409;22;19999;-78
2022/12/28 00:35:59;;;;;;;1999.90;999.90;;;2.90;99.90;;;;;;6350561;22;20346;-78
2022/12/28 00:38:25;;;;;;;1999.90;999.90;;;3.00;99.90;;;;;;6381068;22;20013;-78
2022/12/28 00:40:51;;;;;;;1999.90;999.90;;;3.10;99.90;;;;;;6352954;22;20010;-78
2022/12/28 00:43:16;;;;;;;1999.90;999.90;;;3.10;99.90;;;;;;6353167;22;20014;-78
2022/12/28 00:45:46;;;;;;;1999.90;999.90;;;3.20;99.90;;;;;;6352653;22;20015;-77
2022/12/28 00:48:13;;;;;;;1999.90;999.90;;;3.10;99.90;;;;;;6381568;22;19998;-78
2022/12/28 00:50:39;;;;;;;1999.90;999.90;;;3.10;99.90;;;;;;6352948;22;20007;-78
2022/12/28 00:53:05;;;;;;;1999.90;999.90;;;3.10;99.90;;;;;;6381014;22;20009;-78
2022/12/28 00:55:32;;;;;;;1999.90;999.90;;;3.10;99.90;;;;;;6353544;22;20022;-78
2022/12/28 00:57:58;;;;;;;1999.90;999.90;;;3.10;99.90;;;;;;6382895;22;19999;-78
2022/12/28 01:00:24;;;;;;;1999.90;999.90;;;3.10;99.90;;;;;;6383771;22;20093;-78
2022/12/28 01:02:50;;;;;;;1999.90;999.90;;;3.20;99.90;;;;;;6383792;22;20446;-78
2022/12/28 01:05:15;;;;;;;1999.90;999.90;;;3.30;99.90;;;;;;6383010;22;20014;-78
2022/12/28 01:07:41;;;;;;;1999.90;999.90;;;3.40;99.90;;;;;;6382806;22;20011;-78
2022/12/28 01:10:07;;;;;;;1999.90;999.90;;;3.50;99.90;;;;;;6383349;22;20062;-78
2022/12/28 01:12:32;;;;;;;1999.90;999.90;;;3.60;99.90;;;;;;6384648;22;20010;-78
2022/12/28 01:14:58;;;;;;;1999.90;999.90;;;3.60;99.90;;;;;;6383327;22;20014;-78
2022/12/28 01:17:23;;;;;;;1999.90;999.90;;;3.80;99.90;;;;;;6354064;22;20010;-78
2022/12/28 01:19:49;;;;;;;1999.90;999.90;;;3.70;99.90;;;;;;6383272;22;20010;-78
2022/12/28 01:22:14;;;;;;;1999.90;999.90;;;3.60;99.90;;;;;;6355840;22;20007;-78
2022/12/28 01:24:40;;;;;;;1999.90;999.90;;;3.60;99.90;;;;;;6383801;22;20011;-78
2022/12/28 01:27:06;;;;;;;1999.90;999.90;;;3.50;99.90;;;;;;6355186;22;20006;-78
2022/12/28 01:29:31;;;;;;;1999.90;999.90;;;3.50;99.90;;;;;;6356558;22;20018;-78
2022/12/28 01:31:57;;;;;;;1999.90;999.90;;;3.50;99.90;;;;;;6384485;22;20026;-78
2022/12/28 01:34:22;;;;;;;1999.90;999.90;;;3.50;99.90;;;;;;6356393;22;20085;-77
2022/12/28 01:36:48;;;;;;;1999.90;999.90;;;3.60;99.90;;;;;;6355588;22;20007;-78
2022/12/28 01:39:13;;;;;;;1999.90;999.90;;;3.60;99.90;;;;;;6381888;22;20577;-78
2022/12/28 01:41:40;;;;;;;1999.90;999.90;;;3.60;99.90;;;;;;6381620;22;20086;-78
2022/12/28 01:44:12;;;;;;;1999.90;999.90;;;3.80;99.90;;;;;;6353439;22;20466;-78
2022/12/28 01:46:42;;;;;;;1999.90;999.90;;;3.80;99.90;;;;;;6353513;22;20003;-78
2022/12/28 01:49:40;;;;;;;1999.90;999.90;;;3.80;99.90;;;;;;6381627;22;19999;-78
2022/12/28 01:52:13;;;;;;;1999.90;999.90;;;3.80;99.90;;;;;;6360515;22;20112;-78
2022/12/28 01:54:56;;;;;;;1999.90;999.90;;;3.80;99.90;;;;;;6383052;22;20043;-78
2022/12/28 01:57:26;;;;;;;1999.90;999.90;;;3.90;99.90;;;;;;6354302;22;20064;-78
2022/12/28 02:00:14;;;;;;;1999.90;999.90;;;3.90;99.90;;;;;;6382101;22;19995;-78
2022/12/28 02:02:45;;;;;;;1999.90;999.90;;;3.90;99.90;;;;;;6354160;22;20011;-78
2022/12/28 02:05:11;;;;;;;1999.90;999.90;;;3.90;99.90;;;;;;6356001;22;20006;-78
2022/12/28 02:07:51;;;;;;;1999.90;999.90;;;4.00;99.90;;;;;;6355510;22;20015;-78
2022/12/28 02:10:18;;;;;;;1999.90;999.90;;;4.00;99.90;;;;;;6356196;22;20030;-78
2022/12/28 02:12:45;;;;;;;1999.90;999.90;;;4.20;99.90;;;;;;6386395;22;20011;-78
2022/12/28 02:15:11;;;;;;;1999.90;999.90;;;4.20;99.90;;;;;;6384646;22;20075;-78
2022/12/28 02:17:36;;;;;;;1999.90;999.90;;;4.30;99.90;;;;;;6380596;22;20013;-78
2022/12/28 02:20:02;;;;;;;1999.90;999.90;;;4.30;99.90;;;;;;6350261;22;20003;-78
2022/12/28 02:22:45;;;;;;;1999.90;999.90;;;4.40;99.90;;;;;;6377988;22;20487;-78
2022/12/28 02:25:33;;;;;;;1999.90;999.90;;;4.40;99.90;;;;;;6378454;22;20015;-78
2022/12/28 02:28:37;;;;;;;1999.90;999.90;;;4.40;99.90;;;;;;6378283;22;20439;-78
2022/12/28 02:31:10;;;;;;;1999.90;999.90;;;4.40;99.90;;;;;;6377739;22;20085;-78
2022/12/28 02:33:48;;;;;;;1999.90;999.90;;;4.50;99.90;;;;;;6378203;22;20009;-78
2022/12/28 02:36:29;;;;;;;1999.90;999.90;;;4.40;99.90;;;;;;6377382;22;20470;-78
2022/12/28 02:39:01;;;;;;;1999.90;999.90;;;4.40;99.90;;;;;;6350063;22;20086;-77
2022/12/28 02:41:29;;;;;;;1999.90;999.90;;;4.40;99.90;;;;;;6379001;22;20089;-78
2022/12/28 02:43:58;;;;;;;1999.90;999.90;;;4.30;99.90;;;;;;6378549;22;20438;-78
2022/12/28 02:52:26;;;;;;;1999.90;999.90;;;4.30;99.90;;;;;;6378403;22;20056;-78
2022/12/28 02:57:48;;;;;;;1999.90;999.90;;;4.40;99.90;;;;;;6378075;22;20450;-78
2022/12/28 03:00:19;;;;;;;1999.90;999.90;;;4.50;99.90;;;;;;6377986;22;20012;-78
2022/12/28 03:02:56;;;;;;;1999.90;999.90;;;4.50;99.90;;;;;;6349816;22;20068;-78
2022/12/28 03:08:20;;;;;;;1999.90;999.90;;;4.60;99.90;;;;;;6377333;22;20445;-78
2022/12/28 03:11:00;;;;;;;1999.90;999.90;;;4.60;99.90;;;;;;6378565;22;20423;-78
2022/12/28 03:13:44;;;;;;;1999.90;999.90;;;4.70;99.90;;;;;;6349994;22;20014;-78
2022/12/28 03:16:25;;;;;;;1999.90;999.90;;;4.70;99.90;;;;;;6377177;22;20002;-78
2022/12/28 03:32:58;;;;;;;1999.90;999.90;;;4.80;99.90;;;;;;6378641;22;20471;-77
2022/12/28 03:35:37;;;;;;;1999.90;999.90;;;4.80;99.90;;;;;;6378068;22;20068;-78
2022/12/28 03:38:03;;;;;;;1999.90;999.90;;;4.80;99.90;;;;;;6349883;22;20041;-78
2022/12/28 03:41:01;;;;;;;1999.90;999.90;;;5.50;99.90;;;;;;6378146;22;20089;-78
2022/12/28 03:43:40;;;;;;;1999.90;999.90;;;4.70;99.90;;;;;;6348004;22;20721;-78
2022/12/28 03:46:54;;;;;;;1999.90;999.90;;;4.40;99.90;;;;;;6378337;22;20015;-78
2022/12/28 03:49:22;;;;;;;1999.90;999.90;;;4.80;99.90;;;;;;6342964;22;20007;-78
2022/12/28 03:51:48;;;;;;;1999.90;999.90;;;4.80;99.90;;;;;;6378556;22;20011;-78
2022/12/28 03:54:15;;;;;;;1999.90;999.90;;;4.80;99.90;;;;;;6378569;22;20006;-78
2022/12/28 03:56:47;;;;;;;1999.90;999.90;;;4.90;99.90;;;;;;6377928;22;20011;-78
2022/12/28 03:59:13;;;;;;;1999.90;999.90;;;4.90;99.90;;;;;;6378624;22;19998;-78
2022/12/28 04:01:39;;;;;;;1999.90;999.90;;;4.90;99.90;;;;;;6349945;22;20018;-78
2022/12/28 04:04:04;;;;;;;1999.90;999.90;;;4.90;99.90;;;;;;6378150;22;19998;-78
2022/12/28 04:06:30;;;;;;;1999.90;999.90;;;4.90;99.90;;;;;;6348631;22;20019;-79
2022/12/28 04:08:55;;;;;;;1999.90;999.90;;;5.00;99.90;;;;;;6348871;22;20007;-78
2022/12/28 04:11:21;;;;;;;1999.90;999.90;;;4.90;99.90;;;;;;6348749;22;20018;-78
2022/12/28 04:13:46;;;;;;;1999.90;999.90;;;5.00;99.90;;;;;;6348848;22;20006;-79
2022/12/28 04:16:13;;;;;;;1999.90;999.90;;;4.90;99.90;;;;;;6376041;22;20363;-79
2022/12/28 04:18:40;;;;;;;1999.90;999.90;;;4.80;99.90;;;;;;6377159;22;20006;-79
2022/12/28 04:21:06;;;;;;;1999.90;999.90;;;4.90;99.90;;;;;;6349868;22;20017;-79
2022/12/28 04:23:32;;;;;;;1999.90;999.90;;;4.90;99.90;;;;;;6378541;22;20033;-79
2022/12/28 04:26:02;;;;;;;1999.90;999.90;;;4.90;99.90;;;;;;6378051;22;20015;-79
2022/12/28 04:28:30;;;;;;;1999.90;999.90;;;5.00;99.90;;;;;;6350245;22;20002;-79
2022/12/28 04:30:56;;;;;;;1999.90;999.90;;;5.00;99.90;;;;;;6378284;22;20038;-78
2022/12/28 04:33:22;;;;;;;1999.90;999.90;;;5.00;99.90;;;;;;6378413;22;20350;-78
2022/12/28 04:35:47;;;;;;;1999.90;999.90;;;5.00;99.90;;;;;;6377861;22;20011;-78
2022/12/28 04:38:13;;;;;;;1999.90;999.90;;;5.10;99.90;;;;;;6350058;22;20003;-78
2022/12/28 04:40:38;;;;;;;1999.90;999.90;;;5.10;99.90;;;;;;6349982;22;20021;-78
2022/12/28 04:43:04;;;;;;;1999.90;999.90;;;5.10;99.90;;;;;;6378645;22;20037;-79
2022/12/28 04:45:29;;;;;;;1999.90;999.90;;;5.10;99.90;;;;;;6377979;22;20003;-78
2022/12/28 04:47:56;;;;;;;1999.90;999.90;;;5.10;99.90;;;;;;6378384;22;20003;-78
2022/12/28 04:50:22;;;;;;;1999.90;999.90;;;5.10;99.90;;;;;;6349829;22;20346;-78
2022/12/28 04:52:47;;;;;;;1999.90;999.90;;;5.10;99.90;;;;;;6349988;22;20007;-78
2022/12/28 04:55:13;;;;;;;1999.90;999.90;;;5.10;99.90;;;;;;6378113;22;20072;-79
2022/12/28 04:57:38;;;;;;;1999.90;999.90;;;5.10;99.90;;;;;;6350300;22;20500;-79
2022/12/28 05:00:05;;;;;;;1999.90;999.90;;;5.10;99.90;;;;;;6350085;22;20007;-79
2022/12/28 05:02:30;;;;;;;1999.90;999.90;;;5.10;99.90;;;;;;6378608;22;20017;-79
2022/12/28 05:04:56;;;;;;;1999.90;999.90;;;5.20;99.90;;;;;;6378097;22;20026;-79
2022/12/28 05:07:21;;;;;;;1999.90;999.90;;;5.20;99.90;;;;;;6349442;22;20358;-79
2022/12/28 05:09:47;;;;;;;1999.90;999.90;;;5.20;99.90;;;;;;6378357;22;20330;-79
2022/12/28 05:12:12;;;;;;;1999.90;999.90;;;5.20;99.90;;;;;;6350240;22;20010;-79
2022/12/28 05:14:38;;;;;;;1999.90;999.90;;;5.20;99.90;;;;;;6378070;22;20088;-79
2022/12/28 05:17:04;;;;;;;1999.90;999.90;;;5.30;99.90;;;;;;6377866;22;20011;-79
2022/12/28 05:19:29;;;;;;;1999.90;999.90;;;5.30;99.90;;;;;;6350436;22;20010;-79
2022/12/28 05:21:55;;;;;;;1999.90;999.90;;;5.30;99.90;;;;;;6386296;22;20015;-79
2022/12/28 05:24:21;;;;;;;1999.90;999.90;;;5.30;99.90;;;;;;6351209;22;20015;-79
2022/12/28 05:26:46;;;;;;;1999.90;999.90;;;5.30;99.90;;;;;;6378434;22;20007;-79
2022/12/28 05:29:12;;;;;;;1999.90;999.90;;;5.40;99.90;;;;;;6379249;22;20013;-79
2022/12/28 05:31:37;;;;;;;1999.90;999.90;;;5.30;99.90;;;;;;6350519;22;20013;-79
2022/12/28 05:34:03;;;;;;;1999.90;999.90;;;5.40;99.90;;;;;;6350919;22;20074;-79
2022/12/28 05:36:28;;;;;;;1999.90;999.90;;;5.40;99.90;;;;;;6349509;22;20007;-79
2022/12/28 05:38:55;;;;;;;1999.90;999.90;;;5.30;99.90;;;;;;6377972;22;20011;-79
2022/12/28 05:41:26;;;;;;;1999.90;999.90;;;5.30;99.90;;;;;;6378058;22;20446;-79
2022/12/28 05:43:53;;;;;;;1999.90;999.90;;;5.40;99.90;;;;;;6377947;22;20006;-78
2022/12/28 05:46:22;;;;;;;1999.90;999.90;;;5.40;99.90;;;;;;6348884;22;20057;-79
2022/12/28 05:48:48;;;;;;;1999.90;999.90;;;5.40;99.90;;;;;;6350161;22;20007;-79
2022/12/28 05:51:19;;;;;;;1999.90;999.90;;;5.40;99.90;;;;;;6378090;22;20068;-79
2022/12/28 05:53:45;;;;;;;1999.90;999.90;;;5.40;99.90;;;;;;6378027;22;20010;-79
2022/12/28 05:56:13;;;;;;;1999.90;999.90;;;5.40;99.90;;;;;;6349279;22;20097;-79
2022/12/28 05:58:38;;;;;;;1999.90;999.90;;;5.40;99.90;;;;;;6349756;22;20011;-79
2022/12/28 06:01:10;;;;;;;1999.90;999.90;;;5.50;99.90;;;;;;6378068;22;20006;-79
2022/12/28 06:03:37;;;;;;;1999.90;999.90;;;5.60;99.90;;;;;;6378084;22;20031;-78
2022/12/28 06:06:08;;;;;;;1999.90;999.90;;;5.60;99.90;;;;;;6349126;22;20578;-79
2022/12/28 06:08:34;;;;;;;1999.90;999.90;;;5.60;99.90;;;;;;6349711;22;20011;-79
2022/12/28 06:11:02;;;;;;;1999.90;999.90;;;5.60;99.90;;;;;;6377805;22;20040;-79
2022/12/28 06:13:29;;;;;;;1999.90;999.90;;;5.60;99.90;;;;;;6379084;22;20467;-81
2022/12/28 06:15:54;;;;;;;1999.90;999.90;;;5.50;99.90;;;;;;6377518;22;20003;-79
2022/12/28 06:18:20;;;;;;;1999.90;999.90;;;5.50;99.90;;;;;;6377656;22;20446;-79
2022/12/28 06:20:45;;;;;;;1999.90;999.90;;;5.50;99.90;;;;;;6377395;22;20003;-79
2022/12/28 06:23:11;;;;;;;1999.90;999.90;;;5.50;99.90;;;;;;6349345;22;20003;-79
2022/12/28 06:25:37;;;;;;;1999.90;999.90;;;5.60;99.90;;;;;;6376989;22;20015;-78
2022/12/28 06:28:03;;;;;;;1999.90;999.90;;;5.60;99.90;;;;;;6349227;22;20086;-79
2022/12/28 06:30:28;;;;;;;1999.90;999.90;;;5.60;99.90;;;;;;6377631;22;20364;-79
2022/12/28 06:32:57;;;;;;;1999.90;999.90;;;5.60;99.90;;;;;;6378459;22;20074;-78
2022/12/28 06:35:23;;;;;;;1999.90;999.90;;;5.60;99.90;;;;;;6378368;22;20406;-79
2022/12/28 06:37:49;;;;;;;1999.90;999.90;;;5.60;99.90;;;;;;6377985;22;20083;-79
2022/12/28 06:40:14;;;;;;;1999.90;999.90;;;5.70;99.90;;;;;;6353883;22;20011;-79
2022/12/28 06:42:40;;;;;;;1999.90;999.90;;;5.70;99.90;;;;;;6383807;22;20062;-79
2022/12/28 06:45:06;;;;;;;1999.90;999.90;;;5.70;99.90;;;;;;6383681;22;20011;-79
2022/12/28 06:47:34;;;;;;;1999.90;999.90;;;5.70;99.90;;;;;;6382259;22;20021;-78
2022/12/28 06:50:00;;;;;;;1999.90;999.90;;;5.80;99.90;;;;;;6377567;22;20085;-79
2022/12/28 06:52:26;;;;;;;1999.90;999.90;;;5.80;99.90;;;;;;6377530;22;20081;-79
2022/12/28 06:54:51;;;;;;;1999.90;999.90;;;5.90;99.90;;;;;;6377384;22;20051;-79
2022/12/28 06:57:17;;;;;;;1999.90;999.90;;;5.90;99.90;;;;;;6376723;22;20019;-79
2022/12/28 06:59:42;;;;;;;1999.90;999.90;;;6.00;99.90;;;;;;6349354;22;20076;-79
2022/12/28 07:02:08;;;;;;;1999.90;999.90;;;6.00;99.90;;;;;;6377453;22;20006;-79
2022/12/28 07:04:34;;;;;;;1999.90;999.90;;;6.00;99.90;;;;;;6350245;22;20002;-78
2022/12/28 07:06:59;;;;;;;1999.90;999.90;;;6.10;99.90;;;;;;6348998;22;20019;-79
2022/12/28 07:09:25;;;;;;;1999.90;999.90;;;6.00;99.90;;;;;;6377289;22;20066;-79
2022/12/28 07:11:51;;;;;;;1999.90;999.90;;;6.00;99.90;;;;;;6349555;22;20066;-78
2022/12/28 07:14:17;;;;;;;1999.90;999.90;;;6.10;99.90;;;;;;6378541;22;20003;-79
2022/12/28 07:16:43;;;;;;;1999.90;999.90;;;6.10;99.90;;;;;;6348789;22;20015;-79
2022/12/28 07:19:09;;;;;;;1999.90;999.90;;;6.20;99.90;;;;;;6349178;22;20090;-79
2022/12/28 07:21:38;;;;;;;1999.90;999.90;;;6.10;99.90;;;;;;6376687;22;20011;-79
2022/12/28 07:24:05;;;;;;;1999.90;999.90;;;6.10;99.90;;;;;;6348867;22;20010;-79
2022/12/28 07:26:32;;;;;;;1999.90;999.90;;;6.10;99.90;;;;;;6376692;22;20085;-79
2022/12/28 07:28:59;;;;;;;1999.90;999.90;;;6.10;99.90;;;;;;6377143;22;20013;-79
2022/12/28 07:31:27;;;;;;;1999.90;999.90;;;6.10;99.90;;;;;;6377363;22;20032;-79
2022/12/28 07:33:55;;;;;;;1999.90;999.90;;;6.20;99.90;;;;;;6377301;22;20066;-79
2022/12/28 07:36:22;;;;;;;1999.90;999.90;;;6.20;99.90;;;;;;6348541;22;20013;-78
2022/12/28 07:38:48;;;;;;;1999.90;999.90;;;6.10;99.90;;;;;;6376818;22;20460;-79
2022/12/28 07:41:16;;;;;;;1999.90;999.90;;;6.20;99.90;;;;;;6349093;22;20007;-79
2022/12/28 07:43:42;;;;;;;1999.90;999.90;;;6.20;99.90;;;;;;6376848;22;20010;-79
2022/12/28 07:46:12;;;;;;;1999.90;999.90;;;6.20;99.90;;;;;;6348606;22;20039;-78
2022/12/28 07:48:38;;;;;;;1999.90;999.90;;;6.30;99.90;;;;;;6348759;22;20007;-79
2022/12/28 07:51:07;;;;;;;1999.90;999.90;;;6.30;99.90;;;;;;6376959;22;20083;-78
2022/12/28 07:53:33;;;;;;;1999.90;999.90;;;6.30;99.90;;;;;;6348676;22;20417;-79
2022/12/28 07:55:59;;;;;;;1999.90;999.90;;;6.30;99.90;;;;;;6377444;22;20527;-79
2022/12/28 07:58:25;;;;;;;1999.90;999.90;;;6.30;99.90;;;;;;6349825;22;20034;-79
2022/12/28 08:00:51;;;;;;;1999.90;999.90;;;6.30;99.90;;;;;;6378474;22;20014;-79
2022/12/28 08:03:17;;;;;;;1999.90;999.90;;;6.40;99.90;;;;;;6378378;22;20376;-79
2022/12/28 08:05:43;;;;;;;1999.90;999.90;;;6.40;99.90;;;;;;6377950;22;20068;-79
2022/12/28 08:08:09;;;;;;;1999.90;999.90;;;6.40;99.90;;;;;;6350531;22;20064;-79
2022/12/28 08:10:34;;;;;;;1999.90;999.90;;;6.40;99.90;;;;;;6380161;22;20465;-79
2022/12/28 08:13:00;;;;;;;1999.90;999.90;;;6.40;99.90;;;;;;6380285;22;20011;-79
2022/12/28 08:15:26;;;;;;;1999.90;999.90;;;6.40;99.90;;;;;;6352336;22;20011;-79
2022/12/28 08:17:55;;;;;;;1999.90;999.90;;;6.50;99.90;;;;;;6379957;22;19995;-79
2022/12/28 08:20:21;;;;;;;1999.90;999.90;;;6.50;99.90;;;;;;6379382;22;20048;-79
2022/12/28 08:22:47;;;;;;;1999.90;999.90;;;6.50;99.90;;;;;;6378297;22;20007;-79
2022/12/28 08:25:13;;;;;;;1999.90;999.90;;;6.50;99.90;;;;;;6378055;22;20451;-79
2022/12/28 08:27:39;;;;;;;1999.90;999.90;;;6.60;99.90;;;;;;6378126;22;20003;-79
2022/12/28 08:30:06;;;;;;;1999.90;999.90;;;6.60;99.90;;;;;;6378199;22;20009;-79
2022/12/28 08:32:31;;;;;;;1999.90;999.90;;;6.70;99.90;;;;;;6378477;22;20382;-79
2022/12/28 08:34:57;;;;;;;1999.90;999.90;;;6.80;99.90;;;;;;6350099;22;20014;-79
2022/12/28 08:37:22;;;;;;;1999.90;999.90;;;6.80;99.90;;;;;;6350056;22;20056;-79
2022/12/28 08:39:48;;;;;;;1999.90;999.90;;;6.80;99.90;;;;;;6350813;22;20078;-79
2022/12/28 08:42:13;;;;;;;1999.90;999.90;;;6.80;99.90;;;;;;6350768;22;20042;-78
2022/12/28 08:44:39;;;;;;;1999.90;999.90;;;6.90;99.90;;;;;;6378420;22;20007;-78
2022/12/28 08:47:04;;;;;;;1999.90;999.90;;;6.90;99.90;;;;;;6349871;22;20041;-81
2022/12/28 08:49:30;;;;;;;1999.90;999.90;;;6.90;99.90;;;;;;6350218;22;20003;-80
2022/12/28 08:51:55;;;;;;;1999.90;999.90;;;7.00;99.90;;;;;;6378493;22;20346;-79
2022/12/28 08:54:21;;;;;;;1999.90;999.90;;;7.10;99.90;;;;;;6350411;22;20342;-79
2022/12/28 08:56:46;;;;;;;1999.90;999.90;;;7.10;99.90;;;;;;6350457;22;20052;-79
2022/12/28 08:59:15;;;;;;;1999.90;999.90;;;7.10;99.90;;;;;;6349939;22;20003;-78
2022/12/28 09:01:41;;;;;;;1999.90;999.90;;;7.10;99.90;;;;;;6349661;22;20038;-78
2022/12/28 09:04:10;;;;;;;1999.90;999.90;;;7.10;99.90;;;;;;6350403;22;20038;-79
2022/12/28 09:06:37;;;;;;;1999.90;999.90;;;7.10;99.90;;;;;;6349446;22;20132;-80
2022/12/28 09:09:05;;;;;;;1999.90;999.90;;;7.10;99.90;;;;;;6350659;22;20003;-80
2022/12/28 09:11:33;;;;;;;1999.90;999.90;;;7.10;99.90;;;;;;6349942;22;20112;-80
2022/12/28 09:13:59;;;;;;;1999.90;999.90;;;7.20;99.90;;;;;;6349719;22;20006;-79
2022/12/28 09:16:26;;;;;;;1999.90;999.90;;;7.20;99.90;;;;;;6377584;22;20439;-79
2022/12/28 09:18:54;;;;;;;1999.90;999.90;;;7.20;99.90;;;;;;6350664;22;20013;-80
2022/12/28 09:21:21;;;;;;;1999.90;999.90;;;7.30;99.90;;;;;;6349773;22;20022;-79
2022/12/28 09:23:47;;;;;;;1999.90;999.90;;;7.40;99.90;;;;;;6378241;22;20084;-79
2022/12/28 09:26:16;;;;;;;1999.90;999.90;;;7.50;99.90;;;;;;6377722;22;20010;-78
2022/12/28 09:28:46;;;;;;;1999.90;999.90;;;7.50;99.90;;;;;;6378447;22;20464;-78
2022/12/28 09:31:12;;;;;;;1999.90;999.90;;;7.60;99.90;;;;;;6349749;22;20443;-78
2022/12/28 09:36:22;;;;;;;1999.90;999.90;;;7.60;99.90;;;;;;6377530;22;20007;-78
2022/12/28 09:38:48;;;;;;;1999.90;999.90;;;7.60;99.90;;;;;;6349823;22;20003;-78
2022/12/28 09:41:26;;;;;;;1999.90;999.90;;;7.70;99.90;;;;;;6378175;22;20093;-79
2022/12/28 09:43:59;;;;;;;1999.90;999.90;;;7.80;99.90;;;;;;6378630;22;20011;-80
2022/12/28 09:46:25;;;;;;;1999.90;999.90;;;7.90;99.90;;;;;;6350068;22;20068;-79
2022/12/28 09:48:56;;;;;;;1999.90;999.90;;;7.90;99.90;;;;;;6378715;22;20010;-80
2022/12/28 09:51:31;;;;;;;1999.90;999.90;;;7.90;99.90;;;;;;6378260;22;20450;-80
2022/12/28 09:53:57;;;;;;;1999.90;999.90;;;8.00;99.90;;;;;;6378218;22;20104;-80
2022/12/28 09:56:41;;;;;;;1999.90;999.90;;;8.10;99.90;;;;;;6377418;22;20080;-80
2022/12/28 09:59:13;;;;;;;1999.90;999.90;;;8.10;99.90;;;;;;6349609;22;20011;-79
2022/12/28 10:01:42;;;;;;;1999.90;999.90;;;8.20;99.90;;;;;;6378289;22;20007;-79
2022/12/28 10:04:10;;;;;;;1999.90;999.90;;;8.20;99.90;;;;;;6349759;22;20085;-79
2022/12/28 10:06:36;;;;;;;1999.90;999.90;;;8.30;99.90;;;;;;6348984;22;20026;-81
2022/12/28 10:09:09;;;;;;;1999.90;999.90;;;8.30;99.90;;;;;;6349924;22;20005;-80
2022/12/28 10:11:40;;;;;;;1999.90;999.90;;;8.40;99.90;;;;;;6350201;22;20344;-81
2022/12/28 10:14:33;;;;;;;1999.90;999.90;;;8.50;99.90;;;;;;6348435;22;20034;-80
2022/12/28 10:16:59;;;;;;;1999.90;999.90;;;8.60;99.90;;;;;;6348462;22;20515;-80
2022/12/28 10:19:26;;;;;;;1999.90;999.90;;;8.70;99.90;;;;;;6378409;22;20007;-80
2022/12/28 10:22:07;;;;;;;1999.90;999.90;;;8.80;99.90;;;;;;6378439;22;20018;-79
2022/12/28 10:24:33;;;;;;;1999.90;999.90;;;8.80;99.90;;;;;;6376355;22;20025;-80
2022/12/28 10:27:01;;;;;;;1999.90;999.90;;;8.90;99.90;;;;;;6348448;22;20517;-80
2022/12/28 10:29:30;;;;;;;1999.90;999.90;;;8.90;99.90;;;;;;6376457;22;20512;-80
2022/12/28 10:32:00;;;;;;;1999.90;999.90;;;8.80;99.90;;;;;;6345836;22;20017;-80
2022/12/28 10:34:26;;;;;;;1999.90;999.90;;;8.90;99.90;;;;;;6346824;22;20018;-81
2022/12/28 10:36:54;;;;;;;1999.90;999.90;;;8.90;99.90;;;;;;6376353;22;20070;-80
2022/12/28 10:39:24;;;;;;;1999.90;999.90;;;9.00;99.90;;;;;;6376388;22;19998;-80
2022/12/28 10:41:51;;;;;;;1999.90;999.90;;;9.10;99.90;;;;;;6377451;22;20082;-80
2022/12/28 10:44:34;;;;;;;1999.90;999.90;;;9.20;99.90;;;;;;6347940;22;20031;-80
2022/12/28 10:47:03;;;;;;;1999.90;999.90;;;9.30;99.90;;;;;;6348473;22;20472;-80
2022/12/28 10:49:34;;;;;;;1999.90;999.90;;;9.40;99.90;;;;;;6348805;22;20010;-80
2022/12/28 10:52:19;;;;;;;1999.90;999.90;;;9.50;99.90;;;;;;6377306;22;20082;-80
2022/12/28 10:54:46;;;;;;;1999.90;999.90;;;9.50;99.90;;;;;;6349190;22;20085;-80
2022/12/28 10:57:24;;;;;;;1999.90;999.90;;;9.70;99.90;;;;;;6348798;22;20017;-81
2022/12/28 10:59:50;;;;;;;1999.90;999.90;;;9.70;99.90;;;;;;6376974;22;20003;-81
2022/12/28 11:02:26;;;;;;;1999.90;999.90;;;9.90;99.90;;;;;;6349371;22;20085;-80
2022/12/28 11:04:58;;;;;;;1999.90;999.90;;;9.90;99.90;;;;;;6349020;22;20006;-81
2022/12/28 11:07:36;;;;;;;1999.90;999.90;;;9.90;99.90;;;;;;6377063;22;20035;-80
2022/12/28 11:10:23;;;;;;;1999.90;999.90;;;9.80;99.90;;;;;;6378161;22;20002;-81
2022/12/28 11:12:54;;;;;;;1999.90;999.90;;;9.60;99.90;;;;;;6375640;22;20003;-80
2022/12/28 11:15:23;;;;;;;1999.90;999.90;;;9.60;99.90;;;;;;6349121;22;20076;-80
2022/12/28 11:18:14;;;;;;;1999.90;999.90;;;9.50;99.90;;;;;;6376955;22;20013;-80
2022/12/28 11:20:44;;;;;;;1999.90;999.90;;;9.30;99.90;;;;;;6374358;22;20007;-80
2022/12/28 11:23:31;;;;;;;1999.90;999.90;;;9.50;99.90;;;;;;6348419;22;20056;-80
2022/12/28 11:25:58;;;;;;;1999.90;999.90;;;9.70;99.90;;;;;;6349395;22;20075;-80
2022/12/28 11:28:23;;;;;;;1999.90;999.90;;;9.80;99.90;;;;;;6350244;22;20006;-80
2022/12/28 11:30:50;;;;;;;1999.90;999.90;;;9.80;99.90;;;;;;6377653;22;20541;-82
2022/12/28 11:33:44;;;;;;;1999.90;999.90;;;10.00;99.90;;;;;;6349470;22;20003;-80
2022/12/28 11:36:16;;;;;;;1999.90;999.90;;;10.10;99.90;;;;;;6348805;22;20327;-80
2022/12/28 11:38:46;;;;;;;1999.90;999.90;;;10.00;99.90;;;;;;6349476;22;20522;-81
2022/12/28 11:41:34;;;;;;;1999.90;999.90;;;10.10;99.90;;;;;;6376583;22;20114;-80
2022/12/28 11:44:03;;;;;;;1999.90;999.90;;;10.20;99.90;;;;;;6348898;22;20009;-80
2022/12/28 11:46:28;;;;;;;1999.90;999.90;;;10.10;99.90;;;;;;6347827;22;20014;-80
2022/12/28 11:48:59;;;;;;;1999.90;999.90;;;10.00;99.90;;;;;;6348840;22;20007;-80
2022/12/28 11:51:36;;;;;;;1999.90;999.90;;;9.90;99.90;;;;;;6375652;22;20171;-80
2022/12/28 11:54:44;;;;;;;1999.90;999.90;;;10.00;99.90;;;;;;6377352;22;20003;-80
2022/12/28 11:57:10;;;;;;;1999.90;999.90;;;10.10;99.90;;;;;;6353751;22;20079;-80
2022/12/28 11:59:35;;;;;;;1999.90;999.90;;;10.00;99.90;;;;;;6376690;22;19999;-80
2022/12/28 12:02:26;;;;;;;1999.90;999.90;;;10.10;99.90;;;;;;6376398;22;20431;-80
2022/12/28 12:04:52;;;;;;;1999.90;999.90;;;10.20;99.90;;;;;;6354331;22;20466;-80
2022/12/28 12:07:20;;;;;;;1999.90;999.90;;;10.20;99.90;;;;;;6348646;22;20018;-82
2022/12/28 12:09:47;;;;;;;1999.90;999.90;;;10.10;99.90;;;;;;6376701;22;20082;-80
2022/12/28 12:12:13;;;;;;;1999.90;999.90;;;10.10;99.90;;;;;;6376152;22;20060;-80
2022/12/28 12:14:42;;;;;;;1999.90;999.90;;;10.10;99.90;;;;;;6376182;22;20048;-80
2022/12/28 12:17:19;;;;;;;1999.90;999.90;;;10.10;99.90;;;;;;6375687;22;20018;-80
2022/12/28 12:19:52;;;;;;;1999.90;999.90;;;10.00;99.90;;;;;;6348557;22;20075;-80
2022/12/28 12:22:33;;;;;;;1999.90;999.90;;;9.90;99.90;;;;;;6347573;22;20011;-80
2022/12/28 12:25:23;;;;;;;1999.90;999.90;;;9.80;99.90;;;;;;6348221;22;20003;-80
2022/12/28 12:27:59;;;;;;;1999.90;999.90;;;9.90;99.90;;;;;;6375953;22;20117;-80
2022/12/28 12:30:26;;;;;;;1999.90;999.90;;;9.90;99.90;;;;;;6375996;22;20410;-80
2022/12/28 12:33:02;;;;;;;1999.90;999.90;;;10.00;99.90;;;;;;6347863;22;20010;-80
2022/12/28 12:35:32;;;;;;;1999.90;999.90;;;10.10;99.90;;;;;;6347960;22;20903;-80
2022/12/28 12:38:19;;;;;;;1999.90;999.90;;;10.20;99.90;;;;;;6376053;22;20011;-80
2022/12/28 12:40:47;;;;;;;1999.90;999.90;;;10.30;99.90;;;;;;6347841;22;20007;-80
2022/12/28 12:43:28;;;;;;;1999.90;999.90;;;10.50;99.90;;;;;;6377726;22;20007;-80
2022/12/28 12:46:05;;;;;;;1999.90;999.90;;;10.40;99.90;;;;;;6377199;22;20003;-80
2022/12/28 12:48:48;;;;;;;1999.90;999.90;;;10.50;99.90;;;;;;6349103;22;20019;-80